Time;durP1;ratioP1;P1;durP2;ratioP2;P2;SDS_P1;SDS_P2;PMS_P1;PMS_P2;Temp;Humidity;BMP_temperature;BMP_pressure;BME280_temperature;BME280_humidity;BME280_pressure;Samples;Min_cycle;Max_cycle;Signal;HPM_P1;HPM_P2
2023/06/06 00:00:11;;;;;;;5.80;3.77;;;;;;;17.55;57.55;100549.50;5059762;28;20198;-69
2023/06/06 00:02:42;;;;;;;4.17;3.50;;;;;;;17.39;58.16;100549.72;5060984;28;20547;-70
2023/06/06 00:05:11;;;;;;;5.20;3.90;;;;;;;17.41;58.76;100545.22;5061233;28;20671;-70
2023/06/06 00:07:40;;;;;;;5.13;3.70;;;;;;;17.48;58.58;100547.78;5052880;28;20226;-70
2023/06/06 00:10:11;;;;;;;5.07;4.10;;;;;;;17.40;59.36;100552.38;5064526;28;20243;-70
2023/06/06 00:12:38;;;;;;;5.83;4.20;;;;;;;17.34;59.30;100538.16;5056265;28;20271;-70
2023/06/06 00:15:05;;;;;;;6.37;3.90;;;;;;;17.20;60.13;100544.53;5053874;28;20198;-70
2023/06/06 00:17:32;;;;;;;5.07;3.70;;;;;;;17.01;60.76;100547.44;5052758;28;20222;-70
2023/06/06 00:19:58;;;;;;;9.47;5.07;;;;;;;16.86;62.47;100546.72;5060613;28;20198;-70
2023/06/06 00:22:25;;;;;;;4.67;3.73;;;;;;;16.77;63.07;100546.78;5054382;28;20229;-70
2023/06/06 00:24:52;;;;;;;3.63;3.23;;;;;;;16.52;63.84;100562.13;5056910;28;20674;-70
2023/06/06 00:27:19;;;;;;;5.13;3.70;;;;;;;16.29;64.82;100561.41;5048540;28;20226;-70
2023/06/06 00:29:46;;;;;;;6.33;3.83;;;;;;;16.22;66.37;100559.69;5056725;28;20195;-69
2023/06/06 00:32:13;;;;;;;4.13;3.73;;;;;;;16.12;67.28;100552.63;5054393;28;20702;-70
2023/06/06 00:34:39;;;;;;;4.70;3.50;;;;;;;16.13;66.89;100559.75;5052029;28;20221;-70
2023/06/06 00:37:06;;;;;;;4.57;3.80;;;;;;;15.95;67.77;100561.63;5058449;28;20226;-70
2023/06/06 00:39:32;;;;;;;6.10;3.83;;;;;;;15.78;68.32;100559.94;5051178;28;20191;-69
2023/06/06 00:41:58;;;;;;;4.87;3.70;;;;;;;15.59;69.69;100561.81;5056735;28;20191;-70
2023/06/06 00:44:25;;;;;;;6.17;3.90;;;;;;;15.48;69.66;100559.16;5052376;28;20692;-70
2023/06/06 00:46:51;;;;;;;4.33;3.67;;;;;;;15.34;70.34;100561.00;5064234;28;20198;-70
2023/06/06 00:49:18;;;;;;;5.13;3.83;;;;;;;15.23;71.01;100561.03;5052247;28;20306;-70
2023/06/06 00:51:45;;;;;;;5.17;3.90;;;;;;;15.17;71.71;100549.47;5055194;28;20298;-70
2023/06/06 00:54:13;;;;;;;4.67;3.90;;;;;;;15.15;72.39;100559.25;5059038;28;20281;-69
2023/06/06 00:56:43;;;;;;;4.97;3.90;;;;;;;15.14;72.54;100561.03;5057688;28;20590;-70
2023/06/06 00:59:11;;;;;;;5.07;4.20;;;;;;;15.13;73.86;100561.94;5058735;28;20194;-70
2023/06/06 01:01:39;;;;;;;5.57;4.00;;;;;;;15.19;73.74;100559.22;5053080;28;20194;-70
2023/06/06 01:04:07;;;;;;;5.23;4.03;;;;;;;15.22;73.36;100563.72;5057929;28;20199;-70
2023/06/06 01:06:37;;;;;;;4.57;3.70;;;;;;;15.19;74.15;100563.69;5055911;28;20198;-70
2023/06/06 01:09:07;;;;;;;8.27;4.47;;;;;;;15.12;74.71;100561.94;5049649;28;20215;-70
2023/06/06 01:11:45;;;;;;;5.77;4.43;;;;;;;15.04;75.03;100572.63;5052129;28;20257;-70
2023/06/06 01:14:28;;;;;;;7.37;3.97;;;;;;;14.97;75.28;100570.88;5053258;28;20198;-70
2023/06/06 01:16:57;;;;;;;8.03;3.97;;;;;;;15.00;74.72;100568.19;5051105;28;20194;-70
2023/06/06 01:19:29;;;;;;;4.77;3.73;;;;;;;15.09;74.18;100564.59;5058751;28;20215;-70
2023/06/06 01:21:57;;;;;;;6.47;3.90;;;;;;;15.13;74.10;100566.38;5050164;28;20194;-70
2023/06/06 01:24:24;;;;;;;5.70;3.80;;;;;;;15.22;73.86;100564.59;5051882;28;20206;-69
2023/06/06 01:26:51;;;;;;;5.40;3.97;;;;;;;15.20;73.85;100568.13;5057214;28;20382;-70
2023/06/06 01:29:17;;;;;;;6.33;4.13;;;;;;;15.24;73.66;100569.94;5052183;28;20229;-70
2023/06/06 01:31:55;;;;;;;5.57;4.13;;;;;;;15.19;73.97;100569.03;5048593;28;20225;-70
2023/06/06 01:34:30;;;;;;;5.10;4.37;;;;;;;15.17;74.16;100565.47;5061199;28;20205;-69
2023/06/06 01:37:02;;;;;;;5.83;4.20;;;;;;;15.15;74.31;100567.25;5055496;28;20202;-70
2023/06/06 01:39:33;;;;;;;6.33;4.30;;;;;;;15.16;74.54;100569.91;5050378;28;20200;-70
2023/06/06 01:42:00;;;;;;;4.53;3.77;;;;;;;15.27;74.17;100569.91;5051873;28;20643;-70
2023/06/06 01:44:29;;;;;;;8.07;4.20;;;;;;;15.23;74.26;100568.16;5052985;28;20203;-70
2023/06/06 01:46:55;;;;;;;6.90;4.20;;;;;;;15.25;74.24;100567.25;5054775;28;20571;-70
2023/06/06 01:49:25;;;;;;;5.37;3.80;;;;;;;15.22;74.67;100569.94;5055350;28;20289;-69
2023/06/06 01:51:53;;;;;;;6.30;4.43;;;;;;;15.20;74.55;100568.13;5049998;28;20218;-70
2023/06/06 01:54:20;;;;;;;7.90;4.27;;;;;;;15.20;74.51;100566.34;5056368;28;20205;-70
2023/06/06 01:56:46;;;;;;;7.63;4.30;;;;;;;15.25;74.45;100569.03;5052137;28;20553;-69
2023/06/06 01:59:13;;;;;;;5.57;4.20;;;;;;;15.14;75.07;100571.69;5055207;28;20191;-69
2023/06/06 02:01:39;;;;;;;7.90;4.27;;;;;;;15.14;75.37;100570.81;5061778;28;20194;-69
2023/06/06 02:04:05;;;;;;;5.10;4.23;;;;;;;15.13;75.66;100577.03;5049487;28;20199;-71
2023/06/06 02:06:32;;;;;;;6.13;3.97;;;;;;;15.09;76.33;100575.28;5055464;28;20281;-69
2023/06/06 02:08:59;;;;;;;6.80;4.80;;;;;;;15.04;76.54;100585.97;5056754;28;20223;-69
2023/06/06 02:11:26;;;;;;;7.83;4.50;;;;;;;15.05;76.81;100571.72;5053276;28;20222;-69
2023/06/06 02:13:53;;;;;;;5.67;4.13;;;;;;;15.02;76.98;100575.28;5053966;28;20206;-70
2023/06/06 02:16:21;;;;;;;6.27;3.83;;;;;;;15.04;77.00;100576.19;5050220;28;20191;-69
2023/06/06 02:18:49;;;;;;;5.37;4.10;;;;;;;15.07;76.63;100574.41;5057002;28;20225;-69
2023/06/06 02:21:16;;;;;;;6.57;4.03;;;;;;;15.09;76.48;100572.59;5050412;28;20198;-70
2023/06/06 02:23:42;;;;;;;8.57;5.10;;;;;;;15.06;76.41;100570.84;5055094;28;20201;-70
2023/06/06 02:26:09;;;;;;;6.40;4.47;;;;;;;14.94;77.08;100571.75;5054695;28;20198;-70
2023/06/06 02:28:35;;;;;;;6.90;4.40;;;;;;;14.92;77.38;100569.97;5060194;28;20219;-70
2023/06/06 02:31:02;;;;;;;6.43;4.43;;;;;;;14.83;77.67;100562.88;5050261;28;20286;-69
2023/06/06 02:33:29;;;;;;;5.40;4.40;;;;;;;14.78;78.29;100575.31;5056330;28;20286;-70
2023/06/06 02:35:55;;;;;;;6.23;4.33;;;;;;;14.70;78.43;100564.66;5056046;28;20195;-70
2023/06/06 02:38:22;;;;;;;5.70;4.50;;;;;;;14.76;78.29;100565.53;5059548;28;20223;-70
2023/06/06 02:40:49;;;;;;;4.70;4.03;;;;;;;14.70;78.98;100572.66;5053556;28;20222;-70
2023/06/06 02:43:15;;;;;;;6.10;4.07;;;;;;;14.81;78.74;100567.34;5062114;28;20530;-70
2023/06/06 02:45:42;;;;;;;6.90;4.57;;;;;;;14.83;78.63;100572.66;5067042;28;20663;-70
2023/06/06 02:48:08;;;;;;;8.67;4.33;;;;;;;14.72;78.92;100562.88;5056449;28;20210;-70
2023/06/06 02:50:35;;;;;;;9.03;4.60;;;;;;;14.73;79.71;100559.31;5057585;28;20195;-71
2023/06/06 02:53:03;;;;;;;6.07;4.70;;;;;;;14.72;79.16;100570.00;5057459;28;20219;-71
2023/06/06 02:55:30;;;;;;;7.93;4.17;;;;;;;14.67;79.90;100566.44;5056038;28;20191;-71
2023/06/06 02:57:56;;;;;;;4.60;4.07;;;;;;;14.72;80.34;100557.53;5064459;28;20221;-71
2023/06/06 03:00:23;;;;;;;5.60;4.27;;;;;;;14.62;80.61;100555.78;5053688;28;20297;-71
2023/06/06 03:02:50;;;;;;;10.13;4.70;;;;;;;14.58;81.76;100561.13;5052606;28;20194;-71
2023/06/06 03:05:17;;;;;;;6.00;4.33;;;;;;;14.53;82.10;100562.91;5053702;28;20202;-70
2023/06/06 03:07:43;;;;;;;5.10;4.30;;;;;;;14.41;83.51;100561.97;5061398;28;20789;-70
2023/06/06 03:10:09;;;;;;;5.27;4.10;;;;;;;14.39;83.54;100570.81;5062135;28;20203;-72
2023/06/06 03:12:36;;;;;;;7.00;4.60;;;;;;;14.40;84.11;100573.50;5051790;28;20328;-71
2023/06/06 03:15:03;;;;;;;7.00;4.80;;;;;;;14.31;84.73;100575.28;5050472;28;20226;-71
2023/06/06 03:17:29;;;;;;;5.77;4.40;;;;;;;14.23;84.85;100582.38;5054264;28;20218;-71
2023/06/06 03:19:56;;;;;;;6.47;3.97;;;;;;;14.10;85.42;100574.38;5054081;28;20718;-71
2023/06/06 03:22:22;;;;;;;6.50;4.90;;;;;;;13.99;86.69;100576.09;5056620;28;20198;-70
2023/06/06 03:24:49;;;;;;;6.07;4.40;;;;;;;13.89;87.83;100576.06;5050672;28;20467;-71
2023/06/06 03:27:16;;;;;;;7.50;4.63;;;;;;;13.78;89.21;100576.94;5054748;28;20725;-70
2023/06/06 03:29:43;;;;;;;7.43;4.70;;;;;;;13.89;90.98;100579.63;5059596;28;20200;-70
2023/06/06 03:32:09;;;;;;;8.83;4.57;;;;;;;13.96;90.17;100576.09;5057310;28;20616;-71
2023/06/06 03:34:36;;;;;;;6.43;4.70;;;;;;;13.92;91.01;100581.41;5063059;28;20231;-71
2023/06/06 03:37:02;;;;;;;7.30;4.47;;;;;;;13.91;90.98;100584.94;5058140;28;20310;-69
2023/06/06 03:39:30;;;;;;;5.90;4.77;;;;;;;13.85;90.91;100585.81;5049840;28;20600;-70
2023/06/06 03:41:56;;;;;;;5.50;4.77;;;;;;;13.84;91.22;100594.69;5058039;28;20229;-70
2023/06/06 03:44:22;;;;;;;5.97;4.50;;;;;;;13.82;91.35;100598.25;5061342;28;20210;-71
2023/06/06 03:46:49;;;;;;;5.90;4.50;;;;;;;13.77;91.74;100591.13;5052728;28;20208;-69
2023/06/06 03:49:15;;;;;;;6.63;5.00;;;;;;;13.75;92.58;100600.00;5051400;28;20220;-70
2023/06/06 03:51:42;;;;;;;9.07;4.60;;;;;;;13.82;92.38;100600.91;5060312;28;20230;-70
2023/06/06 03:54:08;;;;;;;6.77;5.00;;;;;;;13.96;91.90;100602.72;5062224;28;20283;-70
2023/06/06 03:56:36;;;;;;;6.23;4.97;;;;;;;14.21;90.29;100597.47;5061719;28;20198;-71
2023/06/06 03:59:05;;;;;;;8.43;4.80;;;;;;;14.23;90.27;100599.25;5060780;28;20224;-69
2023/06/06 04:01:33;;;;;;;7.77;4.90;;;;;;;14.24;90.21;100598.34;5056406;28;20614;-70
2023/06/06 04:03:59;;;;;;;5.83;4.47;;;;;;;14.39;88.68;100595.69;5058575;28;20286;-70
2023/06/06 04:06:26;;;;;;;8.30;4.97;;;;;;;14.53;88.50;100601.09;5059733;28;20203;-72
2023/06/06 04:08:52;;;;;;;5.97;4.90;;;;;;;14.57;87.38;100594.00;5059062;28;20232;-70
2023/06/06 04:11:19;;;;;;;7.07;4.77;;;;;;;14.63;87.18;100592.22;5057103;28;20198;-71
2023/06/06 04:13:45;;;;;;;7.63;4.27;;;;;;;14.64;87.25;100599.31;5061802;28;20219;-69
2023/06/06 04:16:11;;;;;;;7.93;4.77;;;;;;;14.65;87.00;100593.09;5053893;28;20202;-69
2023/06/06 04:18:38;;;;;;;6.07;4.63;;;;;;;14.68;86.56;100603.75;5060769;28;20629;-71
2023/06/06 04:21:04;;;;;;;8.03;5.17;;;;;;;14.79;86.50;100600.19;5062272;28;20198;-71
2023/06/06 04:23:31;;;;;;;7.80;4.60;;;;;;;14.83;86.65;100599.34;5064516;28;20201;-70
2023/06/06 04:26:01;;;;;;;5.73;4.60;;;;;;;14.86;86.22;100591.34;5059936;28;20190;-70
2023/06/06 04:28:27;;;;;;;7.67;4.63;;;;;;;14.91;85.82;100592.22;5058329;28;20706;-70
2023/06/06 04:30:54;;;;;;;6.97;4.77;;;;;;;15.05;84.66;100598.41;5056877;28;20671;-71
2023/06/06 04:33:21;;;;;;;8.27;4.93;;;;;;;15.19;84.80;100604.59;5053637;28;20222;-71
2023/06/06 04:35:49;;;;;;;7.10;4.90;;;;;;;15.32;84.48;100602.81;5050179;28;20201;-70
2023/06/06 04:38:20;;;;;;;8.30;4.83;;;;;;;15.45;84.27;100595.66;5053367;28;20225;-70
2023/06/06 04:40:50;;;;;;;5.93;4.73;;;;;;;15.58;82.54;100600.97;5058379;28;20195;-70
2023/06/06 04:43:36;;;;;;;6.60;4.87;;;;;;;15.76;80.03;100604.47;5057046;28;20224;-70
2023/06/06 04:46:03;;;;;;;5.77;4.87;;;;;;;15.86;78.49;100598.19;5063129;28;20684;-70
2023/06/06 04:48:30;;;;;;;7.70;4.50;;;;;;;15.96;78.54;100599.91;5050696;28;20332;-70
2023/06/06 04:50:57;;;;;;;7.60;4.93;;;;;;;16.00;77.64;100596.31;5051013;28;20602;-71
2023/06/06 04:53:23;;;;;;;6.63;4.53;;;;;;;16.01;78.35;100602.56;5054301;28;20662;-70
2023/06/06 04:55:51;;;;;;;7.37;5.43;;;;;;;16.05;78.49;100601.66;5053237;28;20294;-71
2023/06/06 04:58:19;;;;;;;7.17;5.37;;;;;;;16.15;77.70;100601.59;5051427;28;20215;-71
2023/06/06 05:00:46;;;;;;;10.00;5.23;;;;;;;16.15;77.76;100601.59;5048381;28;20198;-70
2023/06/06 05:03:18;;;;;;;8.17;5.17;;;;;;;16.17;77.81;100610.50;5061268;28;20236;-71
2023/06/06 05:05:49;;;;;;;7.43;5.23;;;;;;;16.23;78.16;100613.13;5058865;28;20674;-70
2023/06/06 07:45:15;;;;;;;7.93;3.90;;;;;;;30.17;29.22;100636.25;5092925;28;20192;-96
2023/06/06 11:03:42;;;;;;;4.85;3.95;;;;;;;26.98;32.95;100576.44;4999765;28;20290;-93
2023/06/06 11:06:11;;;;;;;9.38;3.92;;;;;;;27.34;33.20;100570.97;5031065;28;20225;-92
2023/06/06 11:08:43;;;;;;;8.77;3.90;;;;;;;27.95;31.94;100575.81;5077533;28;20171;-94
2023/06/06 11:11:30;;;;;;;6.57;3.72;;;;;;;28.49;30.21;100565.53;5061911;28;20174;-93
2023/06/06 11:14:08;;;;;;;6.65;3.80;;;;;;;28.77;28.23;100565.66;5054509;28;20206;-94
2023/06/06 11:16:37;;;;;;;4.07;3.33;;;;;;;28.90;28.11;100566.75;5065449;28;20194;-93
2023/06/06 11:19:09;;;;;;;4.53;4.05;;;;;;;29.09;27.72;100554.72;5064673;28;20217;-93
2023/06/06 11:21:37;;;;;;;5.05;3.55;;;;;;;29.37;28.06;100552.06;5047633;28;20199;-93
2023/06/06 11:24:05;;;;;;;5.60;4.05;;;;;;;29.32;25.09;100552.34;5056273;28;20200;-94
2023/06/06 11:26:33;;;;;;;4.80;3.45;;;;;;;29.48;23.72;100544.09;5060608;28;20203;-96
2023/06/06 11:29:00;;;;;;;6.18;3.33;;;;;;;29.65;23.87;100540.34;5058012;28;20202;-93
2023/06/06 11:31:27;;;;;;;8.77;3.40;;;;;;;30.17;23.13;100548.81;5062340;28;20207;-93
2023/06/06 11:34:11;;;;;;;7.13;3.58;;;;;;;30.25;22.89;100545.56;5060466;28;20222;-95
2023/06/06 11:36:40;;;;;;;4.45;3.30;;;;;;;30.45;23.09;100545.13;5049886;28;20202;-95
2023/06/06 11:39:12;;;;;;;6.20;3.67;;;;;;;30.48;22.93;100520.31;5060198;28;20274;-96
2023/06/06 11:41:49;;;;;;;4.43;3.22;;;;;;;30.07;23.08;100535.84;5060435;28;20198;-96
2023/06/06 11:44:30;;;;;;;3.78;3.47;;;;;;;30.44;22.62;100518.78;5059870;28;20197;-96
2023/06/06 11:46:56;;;;;;;6.25;3.20;;;;;;;29.83;22.73;100536.41;5064107;28;20194;-94
2023/06/06 11:49:23;;;;;;;6.60;3.63;;;;;;;29.47;23.60;100519.63;5079743;28;20202;-94
2023/06/06 11:52:00;;;;;;;7.10;3.90;;;;;;;29.18;23.77;100530.47;5080050;28;20232;-94
2023/06/06 11:54:28;;;;;;;4.65;3.88;;;;;;;28.73;24.09;100531.38;5079916;28;20204;-94
2023/06/06 11:57:05;;;;;;;6.35;3.65;;;;;;;28.55;25.11;100540.66;5080275;28;20182;-94
2023/06/06 11:59:39;;;;;;;11.40;3.78;;;;;;;28.66;25.19;100524.53;5080311;28;20229;-94
2023/06/06 12:02:25;;;;;;;6.15;3.80;;;;;;;28.59;25.48;100513.13;5069825;28;20405;-94
2023/06/06 12:04:54;;;;;;;6.70;3.95;;;;;;;28.68;24.44;100511.69;5087977;28;20206;-96
2023/06/06 12:07:21;;;;;;;6.18;3.70;;;;;;;28.84;24.72;100528.03;5061120;28;20727;-94
2023/06/06 12:09:58;;;;;;;10.52;3.53;;;;;;;28.73;23.86;100535.94;5059660;28;20214;-94
2023/06/06 12:12:38;;;;;;;7.40;3.75;;;;;;;28.60;24.86;100512.16;5062704;28;20196;-94
2023/06/06 12:15:09;;;;;;;6.13;3.60;;;;;;;28.02;25.02;100512.78;5059174;28;20590;-96
2023/06/06 12:17:37;;;;;;;6.50;3.25;;;;;;;27.88;25.95;100526.28;5073665;28;20202;-94
2023/06/06 12:20:06;;;;;;;7.40;3.90;;;;;;;27.76;26.52;100511.53;5079048;28;20262;-95
2023/06/06 12:22:38;;;;;;;5.90;3.22;;;;;;;27.81;26.14;100508.53;5069761;28;20194;-95
2023/06/06 12:25:05;;;;;;;8.40;4.05;;;;;;;27.82;25.66;100529.34;5070574;28;20197;-96
2023/06/06 12:27:36;;;;;;;5.30;3.60;;;;;;;27.92;25.88;100511.53;5070034;28;20260;-95
2023/06/06 12:30:07;;;;;;;7.45;3.80;;;;;;;28.11;26.59;100538.63;5071123;28;20230;-95
2023/06/06 12:32:36;;;;;;;6.15;3.58;;;;;;;28.15;26.14;100517.53;5072019;28;20237;-95
2023/06/06 12:35:05;;;;;;;6.88;3.95;;;;;;;28.48;25.81;100526.50;5069015;28;20198;-96
2023/06/06 12:37:45;;;;;;;4.18;3.33;;;;;;;29.06;24.99;100512.13;5067594;28;20206;-95
2023/06/06 12:40:19;;;;;;;4.93;3.58;;;;;;;29.48;24.27;100518.66;5078472;28;20212;-96
2023/06/06 12:43:00;;;;;;;5.47;3.63;;;;;;;29.35;23.87;100534.91;5092154;23;20197;-66
2023/06/06 12:45:27;;;;;;;6.28;3.80;;;;;;;29.06;23.94;100538.53;5033720;28;21362;-67
2023/06/06 12:47:56;;;;;;;11.93;3.50;;;;;;;29.20;23.76;100516.72;5055692;28;20215;-68
2023/06/06 12:50:23;;;;;;;6.45;3.50;;;;;;;29.58;23.88;100514.38;5050758;28;20285;-67
2023/06/06 12:52:50;;;;;;;9.77;3.78;;;;;;;29.97;23.03;100518.25;5052316;28;20214;-68
2023/06/06 12:55:19;;;;;;;7.07;3.38;;;;;;;29.51;22.67;100524.81;5059923;28;20207;-67
2023/06/06 12:57:47;;;;;;;5.82;3.55;;;;;;;29.25;23.05;100518.22;5048790;28;20223;-66
2023/06/06 13:00:16;;;;;;;5.00;3.63;;;;;;;29.37;22.32;100521.16;5055144;28;20229;-67
2023/06/06 13:02:43;;;;;;;7.28;3.80;;;;;;;29.87;22.41;100517.97;5059547;28;20201;-68
2023/06/06 13:05:10;;;;;;;7.65;3.47;;;;;;;30.29;21.60;100513.44;5056841;28;20197;-67
2023/06/06 13:07:37;;;;;;;3.58;3.00;;;;;;;29.46;22.05;100521.50;5049204;28;20191;-67
2023/06/06 13:10:07;;;;;;;6.13;3.63;;;;;;;28.80;22.79;100521.84;5061050;28;20297;-67
2023/06/06 13:12:40;;;;;;;6.70;3.50;;;;;;;27.97;23.38;100525.75;5056035;28;20198;-66
2023/06/06 13:15:11;;;;;;;3.97;3.03;;;;;;;27.48;24.24;100531.16;5051362;28;20201;-67
2023/06/06 13:17:40;;;;;;;7.32;3.47;;;;;;;27.24;24.38;100518.03;5053855;28;20549;-66
2023/06/06 13:20:11;;;;;;;5.25;3.33;;;;;;;27.13;25.09;100524.00;5054170;28;20195;-67
2023/06/06 13:22:40;;;;;;;5.25;3.70;;;;;;;27.32;26.77;100516.66;5050194;28;20218;-66
2023/06/06 13:25:08;;;;;;;8.85;3.85;;;;;;;27.87;25.41;100515.47;5053898;28;20203;-67
2023/06/06 13:27:34;;;;;;;4.65;3.10;;;;;;;28.47;24.47;100502.97;5053338;28;20210;-67
2023/06/06 13:30:00;;;;;;;5.75;3.10;;;;;;;29.15;23.92;100503.38;5064490;28;20195;-67
2023/06/06 13:32:27;;;;;;;3.70;3.08;;;;;;;29.73;22.61;100507.94;5054467;28;20195;-66
2023/06/06 13:34:54;;;;;;;6.03;3.10;;;;;;;29.85;21.70;100501.69;5064564;28;20221;-67
2023/06/06 13:37:21;;;;;;;6.22;3.53;;;;;;;29.91;22.12;100500.41;5056796;28;20545;-67
2023/06/06 13:39:48;;;;;;;5.60;3.80;;;;;;;29.63;21.40;100507.66;5054128;28;20295;-67
2023/06/06 13:42:14;;;;;;;5.03;3.47;;;;;;;29.61;21.01;100511.44;5071725;28;20193;-67
2023/06/06 13:44:41;;;;;;;3.78;3.35;;;;;;;29.67;21.23;100504.75;5064469;28;20297;-67
2023/06/06 13:47:07;;;;;;;8.02;3.58;;;;;;;29.76;21.47;100512.34;5046318;28;20652;-67
2023/06/06 13:49:34;;;;;;;4.72;3.60;;;;;;;29.28;22.25;100503.53;5055463;28;20224;-67
2023/06/06 13:52:00;;;;;;;7.57;3.83;;;;;;;28.44;24.92;100511.31;5065448;28;20198;-67
2023/06/06 13:54:27;;;;;;;9.40;3.83;;;;;;;27.74;25.94;100504.41;5056082;28;20226;-67
2023/06/06 13:56:54;;;;;;;5.13;3.97;;;;;;;27.53;25.81;100506.44;5041732;28;20244;-67
2023/06/06 13:59:21;;;;;;;3.85;3.45;;;;;;;27.24;27.07;100507.16;5054228;28;20214;-67
2023/06/06 14:01:50;;;;;;;7.82;3.83;;;;;;;27.23;27.49;100510.84;5051632;28;20202;-67
2023/06/06 14:04:18;;;;;;;7.25;3.47;;;;;;;26.86;28.88;100504.59;5060318;28;20233;-66
2023/06/06 14:06:45;;;;;;;4.60;3.58;;;;;;;26.56;29.67;100514.31;5067441;28;20232;-66
2023/06/06 14:09:14;;;;;;;9.52;3.58;;;;;;;26.33;30.56;100505.44;5056912;28;20214;-66
2023/06/06 14:11:44;;;;;;;5.72;3.50;;;;;;;26.17;30.69;100512.56;5061717;28;20201;-66
2023/06/06 14:14:11;;;;;;;6.75;3.90;;;;;;;25.95;31.75;100517.28;5068151;28;20621;-66
2023/06/06 14:16:37;;;;;;;8.30;3.80;;;;;;;25.81;32.60;100526.97;5063456;28;20205;-66
2023/06/06 14:19:04;;;;;;;7.68;3.45;;;;;;;25.80;32.57;100529.75;5063655;28;20616;-67
2023/06/06 14:24:00;;;;;;;7.38;3.60;;;;;;;25.65;33.18;100522.31;5065006;28;20190;-66
2023/06/06 14:26:26;;;;;;;6.10;3.60;;;;;;;25.74;33.11;100524.63;5058350;28;20252;-67
2023/06/06 14:28:53;;;;;;;4.35;3.60;;;;;;;25.75;32.51;100526.38;5067365;28;20283;-66
2023/06/06 14:31:19;;;;;;;5.65;3.83;;;;;;;25.86;33.00;100518.59;5071454;28;20280;-66
2023/06/06 14:33:47;;;;;;;6.32;3.50;;;;;;;25.81;32.81;100513.38;5065928;28;20239;-67
2023/06/06 14:36:15;;;;;;;5.72;3.65;;;;;;;25.69;32.98;100515.81;5061213;28;20637;-66
2023/06/06 14:38:42;;;;;;;7.07;3.20;;;;;;;25.80;33.01;100511.63;5063355;28;20261;-67
2023/06/06 14:41:08;;;;;;;5.47;3.50;;;;;;;25.64;32.71;100518.72;5066676;28;20685;-66
2023/06/06 14:43:35;;;;;;;4.22;3.67;;;;;;;25.65;32.64;100522.31;5030026;28;1052752;-67
2023/06/06 14:46:02;;;;;;;7.07;3.45;;;;;;;25.61;33.25;100513.41;5071582;28;20639;-67
2023/06/06 14:48:28;;;;;;;8.70;3.92;;;;;;;25.59;33.37;100516.19;5065217;28;20214;-67
2023/06/06 14:50:55;;;;;;;4.75;3.50;;;;;;;25.44;33.05;100519.63;5058869;28;20198;-67
2023/06/06 14:53:21;;;;;;;6.70;3.78;;;;;;;25.37;33.78;100512.72;5064466;28;20598;-67
2023/06/06 14:55:49;;;;;;;8.25;3.53;;;;;;;25.29;32.77;100517.63;5072589;28;20190;-67
2023/06/06 14:58:33;;;;;;;6.50;3.63;;;;;;;25.21;33.32;100515.22;5064356;28;20301;-66
2023/06/06 15:01:00;;;;;;;9.63;3.83;;;;;;;25.17;32.79;100518.16;5067756;28;20209;-67
2023/06/06 15:03:28;;;;;;;4.53;3.42;;;;;;;25.06;32.59;100524.06;5062014;28;20195;-67
2023/06/06 15:05:54;;;;;;;4.72;3.10;;;;;;;25.11;32.96;100513.88;5063250;28;20194;-67
2023/06/06 15:08:21;;;;;;;6.13;3.30;;;;;;;25.57;32.05;100509.94;5064380;28;20225;-66
2023/06/06 15:10:47;;;;;;;5.47;3.00;;;;;;;25.85;30.27;100508.69;5068233;28;20199;-66
2023/06/06 15:13:13;;;;;;;4.18;3.20;;;;;;;26.02;31.13;100499.75;5065915;28;20198;-67
2023/06/06 15:15:40;;;;;;;7.55;3.60;;;;;;;26.11;30.32;100497.47;5059216;28;20205;-66
2023/06/06 15:18:07;;;;;;;8.05;3.33;;;;;;;26.17;30.01;100499.88;5065269;28;20252;-66
2023/06/06 15:20:33;;;;;;;6.15;3.70;;;;;;;26.39;30.32;100494.28;5071866;28;20190;-67
2023/06/06 15:23:01;;;;;;;8.63;3.63;;;;;;;26.63;29.71;100494.00;5067626;28;20650;-66
2023/06/06 15:25:27;;;;;;;5.95;3.10;;;;;;;26.61;29.58;100498.63;5061087;28;20754;-67
2023/06/06 15:27:54;;;;;;;5.38;3.20;;;;;;;26.36;29.78;100493.56;5064666;28;20224;-67
2023/06/06 15:30:21;;;;;;;4.72;3.35;;;;;;;26.27;30.18;100494.88;5072246;28;20198;-67
2023/06/06 15:32:47;;;;;;;4.60;2.88;;;;;;;26.01;30.08;100495.25;5060343;28;20201;-67
2023/06/06 15:35:14;;;;;;;4.82;3.28;;;;;;;26.02;30.58;100492.50;5069054;28;20572;-67
2023/06/06 15:37:40;;;;;;;5.95;3.10;;;;;;;26.30;31.15;100494.72;5062758;28;20673;-67
2023/06/06 15:40:07;;;;;;;6.95;3.25;;;;;;;26.48;29.82;100501.13;5067696;28;20206;-67
2023/06/06 15:42:33;;;;;;;6.03;3.22;;;;;;;26.50;29.78;100494.63;5064026;28;20635;-67
2023/06/06 15:45:00;;;;;;;6.38;3.33;;;;;;;26.53;29.86;100501.75;5067927;28;20700;-67
2023/06/06 15:47:26;;;;;;;4.47;3.03;;;;;;;26.63;29.25;100499.44;5068364;28;20210;-67
2023/06/06 15:49:53;;;;;;;4.78;3.40;;;;;;;26.75;29.34;100496.97;5071626;28;20195;-67
2023/06/06 15:52:20;;;;;;;7.07;3.95;;;;;;;26.81;29.60;100491.19;5061169;28;20293;-67
2023/06/06 15:54:47;;;;;;;4.88;3.47;;;;;;;26.92;29.00;100495.22;5063698;28;20223;-67
2023/06/06 15:57:13;;;;;;;4.78;3.60;;;;;;;27.06;28.47;100496.28;5057517;28;20198;-67
2023/06/06 15:59:40;;;;;;;4.05;3.05;;;;;;;26.98;28.90;100494.91;5062288;28;20211;-67
2023/06/06 16:02:07;;;;;;;6.55;3.20;;;;;;;26.57;28.43;100502.47;5063234;28;20221;-66
2023/06/06 16:04:35;;;;;;;3.25;2.95;;;;;;;26.38;29.17;100491.63;5064874;28;20382;-67
2023/06/06 16:07:02;;;;;;;4.30;3.40;;;;;;;26.23;29.29;100488.72;5071190;28;20662;-67
2023/06/06 16:09:28;;;;;;;6.93;3.55;;;;;;;26.39;28.83;100485.25;5066857;28;20242;-66
2023/06/06 16:11:55;;;;;;;5.07;3.00;;;;;;;26.54;28.85;100492.66;5062965;28;20289;-67
2023/06/06 16:14:22;;;;;;;3.72;3.20;;;;;;;26.72;28.33;100486.25;5065343;28;20291;-67
2023/06/06 16:16:48;;;;;;;3.45;3.10;;;;;;;26.77;28.31;100486.88;5070257;28;20205;-67
2023/06/06 16:19:15;;;;;;;5.70;3.30;;;;;;;26.88;28.68;100488.19;5059320;28;20215;-67
2023/06/06 16:21:42;;;;;;;9.35;3.00;;;;;;;26.88;29.06;100496.34;5066751;28;20195;-67
2023/06/06 16:24:08;;;;;;;5.47;3.38;;;;;;;26.93;28.74;100494.25;5070411;28;20197;-67
2023/06/06 16:26:35;;;;;;;4.90;3.30;;;;;;;26.96;28.30;100486.81;5069153;28;20560;-67
2023/06/06 16:29:02;;;;;;;5.57;3.20;;;;;;;26.99;28.37;100492.13;5063471;28;20596;-67
2023/06/06 16:31:29;;;;;;;4.03;2.97;;;;;;;26.98;28.16;100484.03;5061307;28;20632;-67
2023/06/06 16:33:58;;;;;;;5.10;3.10;;;;;;;26.87;28.12;100495.47;5061568;28;20297;-67
2023/06/06 16:36:26;;;;;;;5.22;3.20;;;;;;;26.77;28.59;100494.16;5067008;28;20301;-67
2023/06/06 16:38:53;;;;;;;6.95;3.03;;;;;;;26.72;28.42;100494.41;5062946;28;20218;-66
2023/06/06 16:41:21;;;;;;;5.88;3.30;;;;;;;26.62;28.65;100501.28;5065862;28;20190;-66
2023/06/06 16:43:48;;;;;;;3.22;2.92;;;;;;;26.59;28.93;100501.44;5069603;28;20236;-67
2023/06/06 16:46:14;;;;;;;4.07;3.20;;;;;;;26.49;28.78;100501.03;5068469;28;20300;-67
2023/06/06 16:48:41;;;;;;;6.22;3.25;;;;;;;26.40;28.72;100492.44;5064300;28;20583;-66
2023/06/06 16:51:07;;;;;;;7.05;3.40;;;;;;;26.33;28.59;100500.03;5065478;28;20322;-67
2023/06/06 16:53:34;;;;;;;6.38;3.22;;;;;;;26.05;29.08;100505.03;5058958;28;20199;-67
2023/06/06 16:56:00;;;;;;;7.15;3.40;;;;;;;25.98;29.02;100503.56;5066942;28;20190;-66
2023/06/06 16:58:26;;;;;;;6.95;3.33;;;;;;;25.92;29.50;100513.75;5061476;28;20221;-66
2023/06/06 17:00:53;;;;;;;4.50;3.35;;;;;;;25.56;29.23;100512.75;5062381;28;20691;-67
2023/06/06 17:03:19;;;;;;;6.40;2.97;;;;;;;25.60;30.22;100503.50;5059526;28;20198;-66
2023/06/06 17:05:46;;;;;;;6.22;3.25;;;;;;;25.61;29.89;100503.44;5051122;28;20685;-67
2023/06/06 17:08:16;;;;;;;6.22;2.90;;;;;;;25.50;29.82;100499.47;5096063;23;20645;-68
2023/06/06 17:10:45;;;;;;;4.38;2.75;;;;;;;25.29;29.98;100501.34;5047040;28;20925;-69
2023/06/06 17:13:14;;;;;;;2.83;2.60;;;;;;;25.33;30.21;100507.50;5049042;28;20258;-68
2023/06/06 17:15:41;;;;;;;4.47;2.72;;;;;;;25.29;29.87;100509.47;5049971;28;20424;-69
2023/06/06 17:18:08;;;;;;;3.85;3.00;;;;;;;25.18;30.21;100507.22;5044265;28;20215;-68
2023/06/06 17:20:35;;;;;;;5.43;3.15;;;;;;;25.21;30.79;100504.38;5023298;28;20200;-70
2023/06/06 17:23:01;;;;;;;6.47;3.58;;;;;;;25.18;29.92;100503.63;5029877;28;20196;-69